Terminal Aerodrome Forecast
Issued by NWS Northern Indiana

Home | Current Version | Previous Version | Text Only | Print | Product List | Glossary On
Versions: 1 2 3 4 5 6 7 8 9 10 11 12 13 14
853
FTUS43 KIWX 170539
TAFFWA
TAF
KFWA 170539Z 1706/1806 14004KT P6SM OVC200
      TEMPO 1709/1713 5SM BR
     FM171800 20006KT P6SM OVC100
     FM180200 21006KT P6SM OVC015
     FM180400 22006KT P6SM OVC008=

USA.gov is the U.S. government's official web portal to all federal, state and local government web resources and services.